Time;durP1;ratioP1;P1;durP2;ratioP2;P2;SDS_P1;SDS_P2;PMS_P1;PMS_P2;Temp;Humidity;BMP_temperature;BMP_pressure;BME280_temperature;BME280_humidity;BME280_pressure;Samples;Min_cycle;Max_cycle;Signal;HPM_P1;HPM_P2
2020/12/04 00:01:24;;;;;;;66.90;28.97;;;;;;;-0.98;100.00;100764.92;1682338;85;21054;-79
2020/12/04 00:03:51;;;;;;;63.07;29.47;;;;;;;-0.99;100.00;100768.24;1678236;85;21177;-80
2020/12/04 00:06:19;;;;;;;68.13;30.73;;;;;;;-0.98;100.00;100762.79;1678366;84;21098;-80
2020/12/04 00:08:47;;;;;;;72.80;29.93;;;;;;;-0.97;100.00;100766.65;1659942;85;21271;-77
2020/12/04 00:11:15;;;;;;;45.07;22.43;;;;;;;-0.90;100.00;100764.38;1672579;84;21129;-79
2020/12/04 00:13:42;;;;;;;63.47;28.20;;;;;;;-0.92;100.00;100771.91;1658901;86;21082;-80
2020/12/04 00:16:12;;;;;;;52.77;24.17;;;;;;;-0.89;100.00;100762.30;1660719;81;21126;-79
2020/12/04 00:18:40;;;;;;;51.20;22.47;;;;;;;-0.88;100.00;100757.67;1660199;85;21043;-80
2020/12/04 00:21:21;;;;;;;49.18;22.30;;;;;;;-0.97;100.00;100760.30;1772858;80;21101;-82
2020/12/04 00:23:48;;;;;;;43.77;21.43;;;;;;;-1.01;100.00;100757.17;1745997;82;21132;-81
2020/12/04 00:26:18;;;;;;;43.23;20.77;;;;;;;-1.06;100.00;100753.55;1728869;80;21142;-79
2020/12/04 00:28:45;;;;;;;45.57;22.93;;;;;;;-1.09;100.00;100762.70;1738739;82;21169;-80
2020/12/04 00:31:15;;;;;;;56.43;28.50;;;;;;;-1.12;100.00;100763.44;1767942;78;21121;-80
2020/12/04 00:33:43;;;;;;;45.97;22.73;;;;;;;-1.08;100.00;100755.55;1733898;80;21349;-79
2020/12/04 00:36:12;;;;;;;61.10;28.37;;;;;;;-1.02;100.00;100751.60;1791353;79;21050;-80
2020/12/04 00:38:40;;;;;;;55.40;24.87;;;;;;;-0.97;100.00;100746.34;1813230;78;21125;-80
2020/12/04 00:41:07;;;;;;;60.53;27.10;;;;;;;-1.01;100.00;100746.15;1795846;78;21144;-80
2020/12/04 00:43:35;;;;;;;50.03;22.97;;;;;;;-1.02;100.00;100745.66;1781736;79;21649;-80
2020/12/04 00:46:03;;;;;;;47.33;23.03;;;;;;;-1.02;100.00;100743.13;1749730;81;22220;-77
2020/12/04 00:48:31;;;;;;;55.83;26.20;;;;;;;-1.02;100.00;100745.66;1791139;78;21036;-81
2020/12/04 00:50:59;;;;;;;50.23;22.40;;;;;;;-0.99;100.00;100750.47;1810560;78;21163;-79
2020/12/04 00:53:27;;;;;;;42.23;21.97;;;;;;;-0.96;100.00;100739.17;1809412;78;21153;-80
2020/12/04 00:55:54;;;;;;;64.23;30.57;;;;;;;-0.92;100.00;100734.22;1787675;78;21038;-80
2020/12/04 00:58:23;;;;;;;45.80;23.23;;;;;;;-0.92;100.00;100724.06;1812081;79;22123;-80
2020/12/04 01:00:51;;;;;;;54.13;26.40;;;;;;;-0.91;100.00;100729.23;1814117;78;21058;-80
2020/12/04 01:03:19;;;;;;;55.20;27.67;;;;;;;-0.90;100.00;100730.95;1816056;79;21116;-80
2020/12/04 01:05:47;;;;;;;37.43;19.60;;;;;;;-0.83;100.00;100729.13;1815792;79;21085;-81
2020/12/04 01:08:14;;;;;;;41.23;22.67;;;;;;;-0.78;100.00;100728.08;1791543;79;21102;-80
2020/12/04 01:10:43;;;;;;;43.90;22.87;;;;;;;-0.82;100.00;100724.91;1815613;79;21357;-80
2020/12/04 01:13:11;;;;;;;43.83;24.20;;;;;;;-0.88;100.00;100733.17;1813650;79;21039;-82
2020/12/04 01:15:39;;;;;;;46.10;22.90;;;;;;;-0.93;100.00;100724.87;1799111;79;21116;-80
2020/12/04 01:18:06;;;;;;;51.37;24.33;;;;;;;-0.94;100.00;100726.55;1785787;79;21186;-80
2020/12/04 01:20:34;;;;;;;48.37;23.37;;;;;;;-0.92;100.00;100736.36;1803812;78;21089;-81
2020/12/04 01:23:01;;;;;;;43.03;19.63;;;;;;;-0.92;100.00;100733.81;1753798;80;21366;-81
2020/12/04 01:25:29;;;;;;;52.03;22.37;;;;;;;-0.89;100.00;100735.63;1810794;79;21116;-80
2020/12/04 01:27:57;;;;;;;50.20;21.77;;;;;;;-0.88;100.00;100733.55;1781139;79;21137;-80
2020/12/04 01:30:25;;;;;;;47.53;20.73;;;;;;;-0.88;100.00;100730.62;1811597;79;21033;-80
2020/12/04 01:32:52;;;;;;;55.37;27.00;;;;;;;-0.86;100.00;100728.14;1782257;80;21046;-79
2020/12/04 01:35:20;;;;;;;58.60;28.53;;;;;;;-0.86;100.00;100725.19;1775425;80;21378;-78
2020/12/04 01:37:48;;;;;;;50.13;25.97;;;;;;;-0.83;100.00;100725.73;1782283;80;21138;-80
2020/12/04 01:40:19;;;;;;;50.23;22.33;;;;;;;-0.83;100.00;100720.24;1812458;79;21084;-81
2020/12/04 01:42:47;;;;;;;36.28;16.35;;;;;;;-0.82;100.00;100716.92;1811018;78;21148;-80
2020/12/04 01:45:16;;;;;;;55.80;25.57;;;;;;;-0.79;100.00;100720.83;1793610;78;21128;-80
2020/12/04 01:47:44;;;;;;;43.97;21.20;;;;;;;-0.76;100.00;100721.36;1811026;78;21363;-81
2020/12/04 01:50:11;;;;;;;63.00;29.63;;;;;;;-0.72;100.00;100713.06;1766506;79;21065;-80
2020/12/04 01:52:40;;;;;;;58.70;28.50;;;;;;;-0.66;100.00;100713.31;1799225;79;21034;-80
2020/12/04 01:55:11;;;;;;;49.75;21.30;;;;;;;-0.58;100.00;100718.33;1782639;79;21097;-80
2020/12/04 01:57:40;;;;;;;44.10;20.57;;;;;;;-0.58;100.00;100712.38;1793639;79;21096;-80
2020/12/04 02:00:08;;;;;;;54.20;28.30;;;;;;;-0.65;100.00;100718.02;1778875;79;21339;-81
2020/12/04 02:02:38;;;;;;;50.40;25.23;;;;;;;-0.67;100.00;100724.29;1787834;78;21096;-78
2020/12/04 02:05:06;;;;;;;53.07;25.97;;;;;;;-0.61;100.00;100724.95;1786547;79;21144;-80
2020/12/04 02:07:54;;;;;;;58.60;26.50;;;;;;;-0.54;100.00;100725.26;1788986;79;21074;-80
2020/12/04 02:10:28;;;;;;;40.60;21.33;;;;;;;-0.49;100.00;100733.09;1806018;79;21038;-80
2020/12/04 02:12:56;;;;;;;56.43;25.90;;;;;;;-0.56;100.00;100728.53;1782484;80;21276;-80
2020/12/04 02:15:25;;;;;;;43.13;19.73;;;;;;;-0.64;100.00;100734.98;1818274;79;21156;-80
2020/12/04 02:17:56;;;;;;;41.73;20.77;;;;;;;-0.71;100.00;100730.92;1811796;79;21010;-80
2020/12/04 02:20:24;;;;;;;44.77;18.93;;;;;;;-0.77;100.00;100734.47;1753422;79;21180;-80
2020/12/04 02:22:52;;;;;;;59.47;27.67;;;;;;;-0.78;100.00;100734.42;1814469;79;21152;-81
2020/12/04 02:25:20;;;;;;;46.87;18.70;;;;;;;-0.79;100.00;100737.75;1801629;79;21420;-79
2020/12/04 02:27:47;;;;;;;53.67;25.40;;;;;;;-0.79;100.00;100726.31;1805007;79;21180;-80
2020/12/04 02:30:34;;;;;;;56.27;22.40;;;;;;;-0.76;100.00;100720.95;1743478;81;21157;-80
2020/12/04 02:33:02;;;;;;;55.63;27.10;;;;;;;-0.73;100.00;100715.14;1788158;79;21014;-81
2020/12/04 02:35:30;;;;;;;49.70;25.47;;;;;;;-0.75;100.00;100715.50;1765445;77;21078;-80
2020/12/04 02:37:58;;;;;;;46.27;23.67;;;;;;;-0.74;100.00;100714.69;1736043;82;21356;-79
2020/12/04 02:40:26;;;;;;;49.40;23.07;;;;;;;-0.76;100.00;100718.83;1754927;81;21210;-80
2020/12/04 02:42:54;;;;;;;54.10;26.00;;;;;;;-0.78;100.00;100712.42;1791042;79;21043;-79
2020/12/04 02:45:22;;;;;;;37.50;20.20;;;;;;;-0.77;100.00;100718.37;1745249;80;21518;-81
2020/12/04 02:47:49;;;;;;;45.40;21.10;;;;;;;-0.78;100.00;100720.45;1802361;79;21514;-81
2020/12/04 02:50:17;;;;;;;53.37;25.87;;;;;;;-0.77;100.00;100716.69;1819858;79;21450;-80
2020/12/04 02:52:45;;;;;;;41.07;19.60;;;;;;;-0.75;100.00;100714.23;1815768;79;21140;-80
2020/12/04 02:55:14;;;;;;;54.17;25.13;;;;;;;-0.77;100.00;100725.98;1813142;79;21041;-80
2020/12/04 02:57:41;;;;;;;48.27;23.57;;;;;;;-0.75;100.00;100711.69;1788545;79;21176;-80
2020/12/04 03:00:10;;;;;;;55.37;24.77;;;;;;;-0.74;100.00;100710.88;1803764;78;21029;-80
2020/12/04 03:02:38;;;;;;;40.53;19.37;;;;;;;-0.78;100.00;100706.48;1779471;80;21195;-80
2020/12/04 03:05:07;;;;;;;55.87;26.87;;;;;;;-0.78;100.00;100701.40;1786417;80;21132;-81
2020/12/04 03:07:36;;;;;;;50.83;25.40;;;;;;;-0.75;100.00;100712.55;1752911;80;21031;-80
2020/12/04 03:10:07;;;;;;;48.47;22.03;;;;;;;-0.76;100.00;100709.52;1714059;83;21045;-80
2020/12/04 03:12:37;;;;;;;49.80;24.72;;;;;;;-0.76;100.00;100708.25;1812762;79;21049;-80
2020/12/04 03:15:06;;;;;;;40.70;20.57;;;;;;;-0.71;100.00;100707.19;1771929;78;21576;-80
2020/12/04 03:17:34;;;;;;;46.87;22.37;;;;;;;-0.72;100.00;100705.06;1814039;79;21050;-80
2020/12/04 03:20:02;;;;;;;57.97;26.33;;;;;;;-0.74;100.00;100695.23;1783747;80;21113;-80
2020/12/04 03:22:30;;;;;;;55.03;26.27;;;;;;;-0.72;100.00;100697.81;1786144;80;21136;-79
2020/12/04 03:24:57;;;;;;;42.20;19.93;;;;;;;-0.72;100.00;100702.52;1788899;79;21125;-79
2020/12/04 03:27:25;;;;;;;47.03;23.80;;;;;;;-0.68;100.00;100701.37;1776917;78;21510;-79
2020/12/04 03:29:53;;;;;;;56.50;26.07;;;;;;;-0.68;100.00;100697.56;1819918;78;21152;-80
2020/12/04 03:32:21;;;;;;;52.50;24.17;;;;;;;-0.69;100.00;100696.67;1821536;78;21026;-80
2020/12/04 03:34:48;;;;;;;52.57;23.20;;;;;;;-0.66;100.00;100699.34;1765113;80;21255;-80
2020/12/04 03:37:16;;;;;;;56.87;26.23;;;;;;;-0.64;100.00;100696.47;1761538;81;21119;-80
2020/12/04 03:39:44;;;;;;;64.57;25.70;;;;;;;-0.65;100.00;100693.47;1821932;78;21347;-81
2020/12/04 03:42:13;;;;;;;48.57;23.43;;;;;;;-0.63;100.00;100689.30;1802139;79;21049;-80
2020/12/04 03:44:40;;;;;;;52.70;26.70;;;;;;;-0.57;100.00;100683.61;1793305;80;21048;-82
2020/12/04 03:47:08;;;;;;;41.53;20.77;;;;;;;-0.55;100.00;100693.04;1811616;78;21144;-81
2020/12/04 03:49:36;;;;;;;55.30;25.80;;;;;;;-0.56;100.00;100701.44;1809678;78;21187;-80
2020/12/04 03:52:04;;;;;;;35.30;16.40;;;;;;;-0.58;100.00;100695.45;1802185;78;21402;-80
2020/12/04 03:54:32;;;;;;;44.97;24.77;;;;;;;-0.58;100.00;100698.41;1789904;79;21065;-80
2020/12/04 03:57:00;;;;;;;39.63;19.07;;;;;;;-0.58;100.00;100690.78;1758599;80;21147;-80
2020/12/04 03:59:28;;;;;;;41.20;20.50;;;;;;;-0.57;100.00;100689.96;1754989;82;21124;-80
2020/12/04 04:01:56;;;;;;;41.60;19.90;;;;;;;-0.56;100.00;100698.04;1727013;81;21201;-80
2020/12/04 04:04:24;;;;;;;46.47;23.80;;;;;;;-0.55;100.00;100690.50;1760349;80;21372;-78
2020/12/04 04:06:52;;;;;;;43.87;18.57;;;;;;;-0.50;100.00;100695.75;1782045;80;21036;-79
2020/12/04 04:09:21;;;;;;;49.07;24.27;;;;;;;-0.53;100.00;100682.51;1818071;78;20970;-81
2020/12/04 04:11:49;;;;;;;46.33;23.73;;;;;;;-0.51;100.00;100688.94;1812957;79;21162;-79
2020/12/04 04:14:17;;;;;;;39.03;19.20;;;;;;;-0.53;100.00;100690.55;1818272;78;21114;-81
2020/12/04 04:16:45;;;;;;;42.43;19.63;;;;;;;-0.56;100.00;100690.42;1811580;79;22353;-79
2020/12/04 04:19:13;;;;;;;57.60;25.43;;;;;;;-0.53;100.00;100689.27;1786419;79;21121;-81
2020/12/04 04:21:41;;;;;;;35.00;16.53;;;;;;;-0.50;100.00;100696.61;1798489;79;21105;-79
2020/12/04 04:24:09;;;;;;;50.23;24.07;;;;;;;-0.48;100.00;100692.47;1812755;79;22194;-80
2020/12/04 04:26:37;;;;;;;30.17;15.57;;;;;;;-0.43;100.00;100699.41;1792589;79;21098;-81
2020/12/04 04:29:05;;;;;;;42.93;20.57;;;;;;;-0.43;100.00;100695.59;1808147;79;21357;-82
2020/12/04 04:31:32;;;;;;;48.20;22.43;;;;;;;-0.41;100.00;100698.66;1811609;79;21158;-81
2020/12/04 04:34:00;;;;;;;39.53;20.67;;;;;;;-0.39;100.00;100690.71;1812983;79;21145;-80
2020/12/04 04:36:28;;;;;;;51.97;24.53;;;;;;;-0.38;100.00;100694.11;1789277;79;21182;-81
2020/12/04 04:38:56;;;;;;;48.80;23.07;;;;;;;-0.40;100.00;100695.31;1759216;80;21148;-81
2020/12/04 04:41:24;;;;;;;46.33;22.07;;;;;;;-0.40;100.00;100695.72;1775889;79;21367;-81
2020/12/04 04:43:56;;;;;;;46.80;24.57;;;;;;;-0.45;100.00;100681.98;1781443;79;21778;-81
2020/12/04 04:46:45;;;;;;;47.37;25.53;;;;;;;-0.46;100.00;100689.97;1802172;79;21063;-81
2020/12/04 04:49:26;;;;;;;41.70;19.83;;;;;;;-0.47;100.00;100695.47;1810090;79;21038;-80
2020/12/04 04:51:44;;;;;;;38.63;17.98;;;;;;;-0.49;100.00;100694.56;1788185;79;21084;-80
2020/12/04 04:54:12;;;;;;;40.83;19.33;;;;;;;-0.52;100.00;100698.25;1802412;79;21185;-81
2020/12/04 04:56:48;;;;;;;42.27;22.37;;;;;;;-0.53;100.00;100699.03;1803928;79;21058;-80
2020/12/04 04:59:19;;;;;;;42.43;19.13;;;;;;;-0.53;100.00;100692.67;1765088;81;21166;-80
2020/12/04 05:01:47;;;;;;;40.83;20.05;;;;;;;-0.51;100.00;100691.48;1802557;79;21666;-80
2020/12/04 05:04:16;;;;;;;45.60;22.83;;;;;;;-0.48;100.00;100697.55;1743239;81;21197;-80
2020/12/04 05:06:44;;;;;;;56.60;25.83;;;;;;;-0.43;100.00;100700.27;1800478;79;21187;-79
2020/12/04 05:09:25;;;;;;;37.77;18.67;;;;;;;-0.41;100.00;100696.12;1812094;79;21466;-81
2020/12/04 05:12:10;;;;;;;41.90;19.90;;;;;;;-0.36;100.00;100698.46;1791991;79;21097;-80
2020/12/04 05:14:38;;;;;;;50.03;25.27;;;;;;;-0.35;100.00;100692.56;1809126;78;21101;-81
2020/12/04 05:17:08;;;;;;;55.20;25.80;;;;;;;-0.34;100.00;100700.64;1751926;81;21198;-81
2020/12/04 05:19:38;;;;;;;57.70;26.35;;;;;;;-0.34;100.00;100701.91;1786874;79;21260;-80
2020/12/04 05:22:16;;;;;;;49.60;24.63;;;;;;;-0.27;100.00;100699.20;1759182;80;21224;-79
2020/12/04 05:24:45;;;;;;;54.47;27.50;;;;;;;-0.24;100.00;100704.41;1747637;81;21142;-81
2020/12/04 05:27:24;;;;;;;38.60;19.80;;;;;;;-0.24;100.00;100698.92;1752034;81;21072;-79
2020/12/04 05:29:55;;;;;;;39.80;19.47;;;;;;;-0.21;100.00;100704.94;1758780;81;21214;-80
2020/12/04 05:32:24;;;;;;;48.40;23.90;;;;;;;-0.26;100.00;100695.47;1752148;81;21960;-80
2020/12/04 05:34:52;;;;;;;41.80;20.80;;;;;;;-0.25;100.00;100698.88;1756071;81;21241;-79
2020/12/04 05:37:19;;;;;;;38.40;18.97;;;;;;;-0.29;100.00;100699.57;1770571;78;21120;-79
2020/12/04 05:39:48;;;;;;;42.83;22.03;;;;;;;-0.29;100.00;100703.38;1740446;81;21148;-80
2020/12/04 05:42:37;;;;;;;46.53;22.93;;;;;;;-0.29;100.00;100705.92;1753286;79;21160;-80
2020/12/04 05:45:05;;;;;;;45.27;21.70;;;;;;;-0.27;100.00;100703.02;1723328;81;21204;-80
2020/12/04 05:47:40;;;;;;;45.10;21.67;;;;;;;-0.26;100.00;100699.69;1723681;83;21129;-80
2020/12/04 05:50:12;;;;;;;42.47;21.27;;;;;;;-0.25;100.00;100704.82;1687313;82;21157;-80
2020/12/04 05:52:41;;;;;;;37.30;19.07;;;;;;;-0.25;100.00;100700.14;1757965;80;21126;-79
2020/12/04 05:55:09;;;;;;;48.83;23.40;;;;;;;-0.26;100.00;100706.91;1734946;80;21142;-80
2020/12/04 05:58:00;;;;;;;37.83;18.00;;;;;;;-0.25;100.00;100700.14;1757759;81;21413;-80
2020/12/04 06:00:28;;;;;;;32.20;17.52;;;;;;;-0.23;100.00;100698.51;1757745;80;21172;-80
2020/12/04 06:02:59;;;;;;;30.70;16.77;;;;;;;-0.20;100.00;100710.07;1756947;79;21158;-80
2020/12/04 06:05:27;;;;;;;38.78;19.17;;;;;;;-0.19;100.00;100721.14;1757957;80;21110;-79
2020/12/04 06:08:01;;;;;;;37.27;19.90;;;;;;;-0.18;100.00;100713.55;1744895;80;21050;-81
2020/12/04 06:10:30;;;;;;;36.20;18.27;;;;;;;-0.17;100.00;100719.09;1750774;81;21372;-80
2020/12/04 06:12:59;;;;;;;46.13;23.30;;;;;;;-0.18;100.00;100716.09;1706724;83;21245;-81
2020/12/04 06:15:32;;;;;;;35.10;17.87;;;;;;;-0.16;100.00;100723.39;1733377;82;21204;-80
2020/12/04 06:18:06;;;;;;;42.17;20.80;;;;;;;-0.18;100.00;100734.31;1755864;81;21150;-79
2020/12/04 06:20:51;;;;;;;33.53;17.53;;;;;;;-0.17;100.00;100742.39;1734160;80;21122;-80
2020/12/04 06:23:20;;;;;;;39.23;19.63;;;;;;;-0.17;100.00;100729.67;1743684;80;21373;-79
2020/12/04 06:25:56;;;;;;;40.97;21.57;;;;;;;-0.20;100.00;100743.53;1733527;81;21160;-79
2020/12/04 06:28:31;;;;;;;41.17;20.60;;;;;;;-0.20;100.00;100738.45;1742090;82;21609;-79
2020/12/04 06:31:13;;;;;;;35.93;18.77;;;;;;;-0.18;100.00;100739.39;1725168;82;21173;-80
2020/12/04 06:37:01;;;;;;;36.83;17.77;;;;;;;-0.18;100.00;100744.07;1764660;81;21080;-80
2020/12/04 06:39:31;;;;;;;43.60;23.07;;;;;;;-0.19;100.00;100738.94;1761536;81;21069;-79
2020/12/04 06:41:59;;;;;;;34.80;19.07;;;;;;;-0.20;100.00;100742.27;1778179;79;21585;-79
2020/12/04 06:44:31;;;;;;;38.33;21.00;;;;;;;-0.21;100.00;100749.03;1760885;80;21147;-78
2020/12/04 06:46:59;;;;;;;31.65;16.87;;;;;;;-0.19;100.00;100747.84;1729784;80;21092;-79
2020/12/04 06:49:39;;;;;;;40.23;19.47;;;;;;;-0.24;100.00;100756.13;1766291;80;21238;-77
2020/12/04 06:52:14;;;;;;;37.98;18.85;;;;;;;-0.21;100.00;100743.95;1717881;82;21220;-78
2020/12/04 06:54:45;;;;;;;37.93;20.23;;;;;;;-0.18;100.00;100750.42;1756678;80;21110;-77
2020/12/04 06:57:16;;;;;;;39.95;20.82;;;;;;;-0.17;100.00;100744.52;1762093;81;21633;-79
2020/12/04 06:59:43;;;;;;;45.00;19.50;;;;;;;-0.13;100.00;100760.39;1782409;80;21212;-80
2020/12/04 07:02:24;;;;;;;38.93;19.83;;;;;;;-0.13;100.00;100766.75;1769447;79;21197;-79
2020/12/04 07:04:56;;;;;;;47.98;23.07;;;;;;;-0.10;100.00;100772.34;1750637;80;21060;-79
2020/12/04 07:07:25;;;;;;;39.77;20.53;;;;;;;-0.08;100.00;100765.65;1756788;79;21142;-79
2020/12/04 07:09:57;;;;;;;47.73;21.63;;;;;;;-0.04;100.00;100766.23;1756657;81;21124;-79
2020/12/04 07:12:27;;;;;;;37.60;17.77;;;;;;;-0.06;100.00;100762.36;1785603;80;21167;-79
2020/12/04 07:14:59;;;;;;;43.30;19.80;;;;;;;-0.05;100.00;100753.92;1744482;80;21264;-79
2020/12/04 07:17:29;;;;;;;41.97;21.43;;;;;;;-0.06;100.00;100760.23;1779984;80;21168;-79
2020/12/04 07:19:59;;;;;;;44.93;22.10;;;;;;;-0.04;100.00;100758.59;1790469;80;21094;-78
2020/12/04 07:22:27;;;;;;;41.50;22.13;;;;;;;-0.05;100.00;100755.59;1758455;80;21563;-78
2020/12/04 07:24:56;;;;;;;43.93;22.90;;;;;;;-0.05;100.00;100759.41;1763412;80;21085;-80
2020/12/04 07:27:28;;;;;;;42.60;20.70;;;;;;;-0.04;100.00;100769.63;1759276;81;21206;-79
2020/12/04 07:29:56;;;;;;;37.40;19.90;;;;;;;-0.04;100.00;100773.85;1705731;83;21133;-79
2020/12/04 07:32:25;;;;;;;42.53;22.83;;;;;;;-0.05;100.00;100762.82;1753978;81;21176;-79
2020/12/04 07:34:53;;;;;;;43.27;23.07;;;;;;;-0.01;100.00;100771.03;1749715;82;21448;-79
2020/12/04 07:37:29;;;;;;;38.57;18.73;;;;;;;0.02;100.00;100769.02;1750169;81;21058;-78
2020/12/04 07:40:00;;;;;;;44.43;20.10;;;;;;;0.04;100.00;100775.45;1757808;80;21273;-79
2020/12/04 07:42:28;;;;;;;48.43;23.27;;;;;;;0.04;100.00;100772.91;1752833;80;21140;-79
2020/12/04 07:44:58;;;;;;;41.42;19.50;;;;;;;0.06;100.00;100785.27;1730334;80;21113;-78
2020/12/04 07:47:25;;;;;;;47.33;21.80;;;;;;;0.04;100.00;100773.77;1762138;80;21100;-79
2020/12/04 07:49:57;;;;;;;49.17;24.13;;;;;;;0.03;100.00;100781.33;1751121;81;21149;-79
2020/12/04 07:52:25;;;;;;;51.73;25.27;;;;;;;0.06;100.00;100786.53;1749591;81;21665;-79
2020/12/04 07:55:03;;;;;;;44.30;22.80;;;;;;;0.09;100.00;100786.66;1727024;81;21145;-79
2020/12/04 07:57:55;;;;;;;43.17;22.07;;;;;;;0.12;100.00;100776.60;1730661;80;21095;-79
2020/12/04 08:00:24;;;;;;;51.67;25.33;;;;;;;0.13;100.00;100784.31;1703082;80;21516;-78
2020/12/04 08:02:52;;;;;;;46.13;23.40;;;;;;;0.17;100.00;100777.66;1720024;82;21145;-79
2020/12/04 08:05:23;;;;;;;40.27;18.93;;;;;;;0.17;100.00;100787.84;1732210;83;21464;-79
2020/12/04 08:07:54;;;;;;;57.57;27.43;;;;;;;0.18;100.00;100787.02;1732340;81;21078;-79
2020/12/04 08:10:22;;;;;;;53.30;25.67;;;;;;;0.18;100.00;100779.39;1749792;81;21069;-79
2020/12/04 08:12:51;;;;;;;48.20;22.60;;;;;;;0.21;100.00;100782.92;1736831;81;21056;-79
2020/12/04 08:15:19;;;;;;;60.23;27.97;;;;;;;0.22;100.00;100777.42;1718240;82;21140;-80
2020/12/04 08:17:47;;;;;;;55.80;24.90;;;;;;;0.24;100.00;100780.91;1678964;83;21382;-79
2020/12/04 08:20:17;;;;;;;52.23;23.83;;;;;;;0.25;100.00;100788.12;1718786;80;21143;-79
2020/12/04 08:22:52;;;;;;;55.57;26.17;;;;;;;0.28;100.00;100794.20;1756227;81;21199;-79
2020/12/04 08:25:25;;;;;;;54.07;24.23;;;;;;;0.31;100.00;100789.23;1757197;81;21180;-78
2020/12/04 08:27:55;;;;;;;45.37;22.40;;;;;;;0.30;100.00;100798.09;1740722;81;21071;-79
2020/12/04 08:30:25;;;;;;;56.43;25.37;;;;;;;0.28;100.00;100795.47;1753789;80;21456;-78
2020/12/04 08:33:00;;;;;;;54.07;25.33;;;;;;;0.30;100.00;100808.27;1729812;81;21200;-79
2020/12/04 08:35:38;;;;;;;63.83;30.40;;;;;;;0.30;100.00;100810.41;1722964;81;21176;-81
2020/12/04 08:38:15;;;;;;;60.53;27.83;;;;;;;0.31;100.00;100810.00;1735047;80;21122;-79
2020/12/04 08:40:47;;;;;;;59.47;28.70;;;;;;;0.33;100.00;100808.39;1759946;79;21094;-80
2020/12/04 08:43:20;;;;;;;54.30;28.37;;;;;;;0.34;100.00;100789.77;1750065;81;21337;-80
2020/12/04 08:45:52;;;;;;;49.23;21.90;;;;;;;0.39;100.00;100800.59;1747466;79;21168;-79
2020/12/04 08:48:25;;;;;;;58.17;27.33;;;;;;;0.40;100.00;100792.55;1750729;79;21041;-80
2020/12/04 08:50:55;;;;;;;54.40;24.73;;;;;;;0.43;100.00;100785.89;1767453;79;21429;-80
2020/12/04 08:53:24;;;;;;;;;;;;;;;0.46;100.00;100787.28;1751094;81;21169;-81
2020/12/04 08:55:56;;;;;;;51.47;25.10;;;;;;;0.52;100.00;100792.13;1756708;80;21353;-79
2020/12/04 08:58:25;;;;;;;58.23;25.93;;;;;;;0.53;100.00;100795.16;1755328;80;21195;-79
2020/12/04 09:00:55;;;;;;;62.77;28.03;;;;;;;0.56;100.00;100786.36;1755126;80;21156;-78
2020/12/04 09:03:25;;;;;;;55.30;24.00;;;;;;;0.58;100.00;100791.09;1723490;81;21155;-79
2020/12/04 09:05:55;;;;;;;56.20;25.20;;;;;;;0.58;100.00;100798.31;1756990;79;21137;-78
2020/12/04 09:08:23;;;;;;;55.48;25.65;;;;;;;0.59;100.00;100800.07;1752155;79;21378;-80
2020/12/04 09:10:52;;;;;;;60.17;28.33;;;;;;;0.67;100.00;100789.75;1762172;79;21172;-80
2020/12/04 09:13:23;;;;;;;54.90;24.77;;;;;;;0.78;100.00;100793.09;1786708;79;21081;-80
2020/12/04 09:15:51;;;;;;;60.15;28.70;;;;;;;0.86;100.00;100794.26;1749546;80;21283;-78
2020/12/04 09:18:18;;;;;;;52.30;22.67;;;;;;;0.90;100.00;100779.54;1782140;79;21094;-79
2020/12/04 09:20:47;;;;;;;38.93;18.73;;;;;;;0.92;100.00;100794.07;1765868;80;21942;-80
2020/12/04 09:23:18;;;;;;;36.20;17.98;;;;;;;0.93;100.00;100798.75;1748791;80;21116;-79
2020/12/04 09:25:47;;;;;;;44.58;22.67;;;;;;;0.98;100.00;100787.06;1760417;80;26135;-79
2020/12/04 09:28:21;;;;;;;42.43;21.07;;;;;;;1.01;100.00;100793.92;1747170;79;21556;-79
2020/12/04 09:30:49;;;;;;;40.57;19.60;;;;;;;1.03;100.00;100785.94;1756725;80;21087;-78
2020/12/04 09:33:17;;;;;;;41.03;21.53;;;;;;;1.01;100.00;100793.52;1756789;80;21377;-79
2020/12/04 09:35:48;;;;;;;41.57;19.40;;;;;;;1.05;100.00;100791.97;1755501;79;21235;-79
2020/12/04 09:38:18;;;;;;;30.62;16.30;;;;;;;1.00;100.00;100800.70;1731734;79;21128;-78
2020/12/04 09:40:48;;;;;;;35.53;18.53;;;;;;;0.98;100.00;100793.44;1750882;80;21169;-80
2020/12/04 09:43:17;;;;;;;30.57;14.80;;;;;;;0.95;100.00;100797.14;1734790;79;21127;-81
2020/12/04 09:45:47;;;;;;;30.70;15.53;;;;;;;0.94;100.00;100795.39;1740618;80;21432;-80
2020/12/04 09:48:15;;;;;;;32.53;16.20;;;;;;;0.91;100.00;100788.91;1756647;80;21409;-79
2020/12/04 09:50:43;;;;;;;33.07;18.53;;;;;;;0.93;100.00;100786.02;1729306;81;21064;-80
2020/12/04 09:53:13;;;;;;;34.73;19.37;;;;;;;0.94;100.00;100783.92;1783703;79;21186;-81
2020/12/04 09:55:42;;;;;;;39.40;19.67;;;;;;;0.99;100.00;100777.73;1757566;80;21041;-77
2020/12/04 09:58:11;;;;;;;33.57;17.07;;;;;;;0.98;100.00;100788.72;1735146;81;21301;-78
2020/12/04 10:00:40;;;;;;;38.27;20.20;;;;;;;1.01;100.00;100778.64;1764607;79;21101;-79
2020/12/04 10:03:07;;;;;;;41.83;21.73;;;;;;;1.03;100.00;100777.02;1764753;79;21331;-80
2020/12/04 10:05:36;;;;;;;43.27;22.87;;;;;;;1.06;100.00;100778.00;1733248;79;21130;-80
2020/12/04 10:08:04;;;;;;;40.50;22.13;;;;;;;1.12;100.00;100774.80;1761560;79;21154;-81
2020/12/04 10:10:32;;;;;;;36.20;18.93;;;;;;;1.15;100.00;100767.27;1770431;79;21407;-79
2020/12/04 10:13:02;;;;;;;47.83;24.27;;;;;;;1.22;100.00;100768.34;1765873;81;20999;-81
2020/12/04 10:15:33;;;;;;;53.63;25.80;;;;;;;1.19;100.00;100785.66;1763706;80;21020;-82
2020/12/04 10:18:41;;;;;;;49.77;24.90;;;;;;;1.17;100.00;100786.01;1759796;80;21571;-83
2020/12/04 10:21:11;;;;;;;68.43;32.40;;;;;;;1.15;100.00;100782.56;1764772;80;21123;-83
2020/12/04 10:30:42;;;;;;;70.77;32.37;;;;;;;0.94;100.00;100777.14;1736048;80;21170;-81
2020/12/04 10:33:17;;;;;;;54.30;25.27;;;;;;;0.83;100.00;100789.91;1708616;81;21077;-82
2020/12/04 10:35:47;;;;;;;61.90;30.43;;;;;;;0.78;100.00;100781.22;1737237;80;21146;-82
2020/12/04 10:38:18;;;;;;;65.37;29.20;;;;;;;0.78;100.00;100782.91;1749741;80;22400;-82
2020/12/04 10:40:52;;;;;;;60.77;28.07;;;;;;;0.76;100.00;100784.55;1722621;79;21122;-82
2020/12/04 10:43:45;;;;;;;55.50;25.50;;;;;;;0.72;100.00;100774.66;1679054;84;21075;-83
2020/12/04 10:46:33;;;;;;;64.83;30.00;;;;;;;0.66;100.00;100779.52;1709044;81;21182;31
2020/12/04 10:49:32;;;;;;;62.63;30.00;;;;;;;0.66;100.00;100779.11;1721120;82;21088;-84
2020/12/04 11:12:19;;;;;;;64.40;32.93;;;;;;;0.59;100.00;100769.52;1627511;85;21169;-82
2020/12/04 11:14:52;;;;;;;61.17;32.03;;;;;;;0.59;100.00;100773.71;1606413;85;21060;-79
2020/12/04 11:30:03;;;;;;;55.10;32.03;;;;;;;0.55;100.00;100769.33;1656955;82;21152;-83
2020/12/04 11:33:17;;;;;;;;;;;;;;;;;;;;;
2020/12/04 11:36:12;;;;;;;60.93;32.70;;;;;;;0.58;100.00;100764.35;1771348;78;21113;-82
2020/12/04 11:38:59;;;;;;;47.33;27.87;;;;;;;0.59;100.00;100763.53;1784878;78;21208;-84
2020/12/04 11:41:51;;;;;;;52.62;29.20;;;;;;;0.57;100.00;100762.63;1743292;80;21133;-82
2020/12/04 11:44:27;;;;;;;53.97;29.57;;;;;;;0.51;100.00;100771.30;1765675;79;21098;-84
2020/12/04 11:47:03;;;;;;;45.90;25.23;;;;;;;0.45;100.00;100774.06;1754292;80;21153;-83
2020/12/04 11:49:40;;;;;;;50.07;28.70;;;;;;;0.42;100.00;100771.41;1779845;78;21098;-84
2020/12/04 11:52:48;;;;;;;53.83;27.70;;;;;;;0.45;100.00;100770.25;1764094;78;21011;-83
2020/12/04 11:55:35;;;;;;;53.63;30.10;;;;;;;0.49;100.00;100771.27;1774565;80;21113;-83
2020/12/04 11:58:25;;;;;;;51.30;26.37;;;;;;;0.49;100.00;100778.00;1771017;79;21054;-84
2020/12/04 12:01:03;;;;;;;48.63;28.10;;;;;;;0.46;100.00;100774.55;1768268;79;21169;-81
2020/12/04 12:21:16;;;;;;;63.17;32.50;;;;;;;0.31;100.00;100771.42;1747578;79;24866;-78
2020/12/04 12:23:45;;;;;;;57.23;28.07;;;;;;;0.30;100.00;100775.19;1770975;78;21163;-79
2020/12/04 12:27:02;;;;;;;62.60;32.37;;;;;;;0.37;100.00;100779.29;1806806;77;24790;-78